Time,TemperatureF,DewpointF,PressureIn,WindDirection,WindDirectionDegrees,WindSpeedMPH,WindSpeedGustMPH,Humidity,HourlyPrecipIn,Conditions,Clouds,dailyrainin,SoftwareType,DateUTC
2013-11-16 00:00:00,45.3,44.5,30.25,ESE,112,1.0,1.0,97,0.00,RA,,0.00,WeatherDisplay:10.37,2013-11-16 05:00:00,
2013-11-16 00:01:00,45.3,44.5,30.25,SE,139,1.2,1.2,97,0.00,RA,,0.00,WeatherDisplay:10.37,2013-11-16 05:01:00,
2013-11-16 00:06:00,45.4,44.6,30.25,SE,133,2.3,0.0,97,0.00,RA,,0.00,WeatherDisplay:10.37,2013-11-16 05:06:00,
2013-11-16 00:11:00,45.4,44.6,30.25,SE,132,0.0,0.0,97,0.00,,,0.00,WeatherDisplay:10.37,2013-11-16 05:11:00,
2013-11-16 00:16:00,45.4,44.6,30.25,SE,132,1.2,0.0,97,0.00,,,0.00,WeatherDisplay:10.37,2013-11-16 05:16:00,
2013-11-16 00:21:00,45.4,44.6,30.25,SE,132,0.0,0.0,97,0.00,,,0.00,WeatherDisplay:10.37,2013-11-16 05:21:00,
2013-11-16 00:26:00,45.4,44.6,30.25,SE,134,1.2,0.0,97,0.00,,,0.00,WeatherDisplay:10.37,2013-11-16 05:26:00,
2013-11-16 00:31:00,45.4,44.6,30.25,SE,126,1.0,1.0,97,0.00,,,0.00,WeatherDisplay:10.37,2013-11-16 05:31:00,
2013-11-16 00:36:00,45.4,44.6,30.25,ENE,64,2.3,2.3,97,0.00,,,0.00,WeatherDisplay:10.37,2013-11-16 05:36:00,
2013-11-16 00:41:00,45.5,44.7,30.24,East,80,1.2,1.2,97,0.00,,,0.00,WeatherDisplay:10.37,2013-11-16 05:41:00,
2013-11-16 00:46:00,45.5,44.7,30.24,ESE,118,1.2,1.2,97,0.00,,,0.00,WeatherDisplay:10.37,2013-11-16 05:46:00,
2013-11-16 00:51:00,45.5,44.7,30.24,ESE,102,1.2,1.2,97,0.00,,,0.00,WeatherDisplay:10.37,2013-11-16 05:51:00,
2013-11-16 00:56:00,45.4,44.6,30.24,ESE,102,1.2,1.2,97,0.00,,,0.00,WeatherDisplay:10.37,2013-11-16 05:56:00,
2013-11-16 01:01:00,45.4,44.6,30.24,ESE,102,1.2,1.2,97,0.00,,,0.00,WeatherDisplay:10.37,2013-11-16 06:01:00,
2013-11-16 01:06:00,45.3,44.5,30.24,ESE,102,0.0,0.0,97,0.00,,,0.00,WeatherDisplay:10.37,2013-11-16 06:06:00,
2013-11-16 01:11:00,45.3,44.5,30.24,East,101,0.0,0.0,97,0.00,,,0.00,WeatherDisplay:10.37,2013-11-16 06:11:00,
2013-11-16 01:16:00,45.3,44.5,30.23,ESE,102,1.2,1.2,97,0.00,,,0.00,WeatherDisplay:10.37,2013-11-16 06:16:00,
2013-11-16 01:21:00,45.2,44.4,30.23,East,101,0.0,0.0,97,0.00,,,0.00,WeatherDisplay:10.37,2013-11-16 06:21:00,
2013-11-16 01:27:00,45.2,44.4,30.23,East,101,1.2,0.0,97,0.00,,,0.00,WeatherDisplay:10.37,2013-11-16 06:27:00,
2013-11-16 01:32:00,45.2,44.4,30.24,ESE,102,0.0,0.0,97,0.00,,,0.00,WeatherDisplay:10.37,2013-11-16 06:32:00,
2013-11-16 01:37:00,45.2,44.4,30.24,ESE,102,0.0,0.0,97,0.00,,,0.00,WeatherDisplay:10.37,2013-11-16 06:37:00,
2013-11-16 01:42:00,45.2,44.4,30.24,East,101,0.0,0.0,97,0.00,,,0.00,WeatherDisplay:10.37,2013-11-16 06:42:00,
2013-11-16 01:47:00,45.2,44.4,30.24,ESE,102,1.2,0.0,97,0.00,,,0.00,WeatherDisplay:10.37,2013-11-16 06:47:00,
2013-11-16 01:52:00,45.2,44.4,30.24,ESE,102,0.0,0.0,97,0.00,,,0.00,WeatherDisplay:10.37,2013-11-16 06:52:00,
2013-11-16 01:57:00,45.1,44.3,30.25,East,101,0.0,0.0,97,0.00,,,0.00,WeatherDisplay:10.37,2013-11-16 06:57:00,
2013-11-16 02:02:00,45.1,44.3,30.25,East,101,0.0,0.0,97,0.00,,,0.00,WeatherDisplay:10.37,2013-11-16 07:02:00,
2013-11-16 02:07:00,45.0,44.2,30.25,ESE,102,0.0,0.0,97,0.00,,,0.00,WeatherDisplay:10.37,2013-11-16 07:07:00,
2013-11-16 02:12:00,45.0,44.2,30.24,ESE,102,0.0,0.0,97,0.00,,,0.00,WeatherDisplay:10.37,2013-11-16 07:12:00,
2013-11-16 02:17:00,45.0,44.2,30.24,ESE,102,0.0,0.0,97,0.00,,,0.00,WeatherDisplay:10.37,2013-11-16 07:17:00,
2013-11-16 02:22:00,44.8,43.7,30.24,East,101,0.0,0.0,96,0.00,,,0.00,WeatherDisplay:10.37,2013-11-16 07:22:00,
2013-11-16 02:27:00,44.4,43.3,30.24,ESE,102,0.0,0.0,96,0.00,,,0.00,WeatherDisplay:10.37,2013-11-16 07:27:00,
2013-11-16 02:32:00,43.8,42.7,30.24,ESE,102,1.2,1.2,96,0.00,,,0.00,WeatherDisplay:10.37,2013-11-16 07:32:00,
2013-11-16 02:37:00,43.5,42.4,30.23,ESE,102,0.0,0.0,96,0.00,,,0.00,WeatherDisplay:10.37,2013-11-16 07:37:00,
2013-11-16 02:42:00,43.2,42.1,30.23,ESE,102,1.2,0.0,96,0.00,,,0.00,WeatherDisplay:10.37,2013-11-16 07:42:00,
2013-11-16 02:47:00,43.3,42.5,30.23,ESE,102,0.0,0.0,97,0.00,,,0.00,WeatherDisplay:10.37,2013-11-16 07:47:00,
2013-11-16 02:52:00,43.2,42.4,30.23,East,101,0.0,0.0,97,0.00,,,0.00,WeatherDisplay:10.37,2013-11-16 07:52:00,
2013-11-16 02:57:00,43.2,42.4,30.23,ESE,102,0.0,0.0,97,0.00,,,0.00,WeatherDisplay:10.37,2013-11-16 07:57:00,
2013-11-16 03:02:00,43.2,42.4,30.23,East,101,1.2,0.0,97,0.00,,,0.00,WeatherDisplay:10.37,2013-11-16 08:02:00,
2013-11-16 03:07:00,43.8,43.3,30.22,SE,126,2.3,2.3,98,0.00,,,0.00,WeatherDisplay:10.37,2013-11-16 08:07:00,
2013-11-16 03:12:00,43.9,43.1,30.22,SE,133,1.2,1.2,97,0.00,,,0.00,WeatherDisplay:10.37,2013-11-16 08:12:00,
2013-11-16 03:17:00,43.9,43.1,30.22,SE,132,1.2,1.2,97,0.00,,,0.00,WeatherDisplay:10.37,2013-11-16 08:17:00,
2013-11-16 03:22:00,43.8,43.0,30.22,ESE,104,2.3,2.3,97,0.00,,,0.00,WeatherDisplay:10.37,2013-11-16 08:22:00,
2013-11-16 03:27:00,43.6,42.8,30.22,ESE,104,0.0,0.0,97,0.00,,,0.00,WeatherDisplay:10.37,2013-11-16 08:27:00,
2013-11-16 03:32:00,43.6,42.8,30.23,ESE,105,0.0,0.0,97,0.00,,,0.00,WeatherDisplay:10.37,2013-11-16 08:32:00,
2013-11-16 03:37:00,43.8,43.0,30.22,ESE,112,1.2,0.0,97,0.00,,,0.00,WeatherDisplay:10.37,2013-11-16 08:37:00,
2013-11-16 03:42:00,43.6,42.8,30.22,ESE,111,0.0,0.0,97,0.00,,,0.00,WeatherDisplay:10.37,2013-11-16 08:42:00,
2013-11-16 03:47:00,43.3,42.5,30.22,ESE,112,0.0,0.0,97,0.00,,,0.00,WeatherDisplay:10.37,2013-11-16 08:47:00,
2013-11-16 03:52:00,43.3,42.5,30.22,ESE,112,0.0,0.0,97,0.00,,,0.00,WeatherDisplay:10.37,2013-11-16 08:52:00,
2013-11-16 03:57:00,43.3,42.5,30.22,East,89,1.0,1.0,97,0.00,,,0.00,WeatherDisplay:10.37,2013-11-16 08:57:00,
2013-11-16 04:02:00,43.4,42.6,30.22,SE,125,1.2,1.2,97,0.00,,,0.00,WeatherDisplay:10.37,2013-11-16 09:02:00,
2013-11-16 04:07:00,43.5,42.7,30.22,SE,132,1.2,1.2,97,0.00,,,0.00,WeatherDisplay:10.37,2013-11-16 09:07:00,
2013-11-16 04:12:00,43.4,42.6,30.22,SE,133,1.2,0.0,97,0.00,,,0.00,WeatherDisplay:10.37,2013-11-16 09:12:00,
2013-11-16 04:17:00,43.5,42.7,30.22,SE,133,0.0,0.0,97,0.00,,,0.00,WeatherDisplay:10.37,2013-11-16 09:17:00,
2013-11-16 04:22:00,43.3,42.5,30.22,SE,132,0.0,0.0,97,0.00,,,0.00,WeatherDisplay:10.37,2013-11-16 09:22:00,
2013-11-16 04:27:00,43.4,42.6,30.22,SE,132,0.0,0.0,97,0.00,,,0.00,WeatherDisplay:10.37,2013-11-16 09:27:00,
2013-11-16 04:32:00,43.3,42.5,30.22,SE,132,0.0,0.0,97,0.00,,,0.00,WeatherDisplay:10.37,2013-11-16 09:32:00,
2013-11-16 04:37:00,43.3,42.5,30.22,SE,132,0.0,0.0,97,0.00,,,0.00,WeatherDisplay:10.37,2013-11-16 09:37:00,
2013-11-16 04:42:00,43.4,42.6,30.22,SE,133,1.2,1.2,97,0.00,,,0.00,WeatherDisplay:10.37,2013-11-16 09:42:00,
2013-11-16 04:47:00,43.6,43.1,30.22,East,81,2.3,2.3,98,0.00,,,0.00,WeatherDisplay:10.37,2013-11-16 09:47:00,
2013-11-16 04:52:00,43.7,43.2,30.22,East,81,1.2,1.2,98,0.00,,,0.00,WeatherDisplay:10.37,2013-11-16 09:52:00,
2013-11-16 04:57:00,43.8,43.3,30.23,East,85,1.2,1.2,98,0.00,,,0.00,WeatherDisplay:10.37,2013-11-16 09:57:00,
2013-11-16 05:02:00,43.8,43.3,30.23,East,85,0.0,0.0,98,0.00,,,0.00,WeatherDisplay:10.37,2013-11-16 10:02:00,
2013-11-16 05:07:00,43.7,42.9,30.23,East,85,1.2,1.2,97,0.00,,,0.00,WeatherDisplay:10.37,2013-11-16 10:07:00,
2013-11-16 05:12:00,43.5,42.7,30.22,ESE,103,1.2,1.2,97,0.00,,,0.00,WeatherDisplay:10.37,2013-11-16 10:12:00,
2013-11-16 05:17:00,43.3,42.5,30.22,ESE,103,0.0,0.0,97,0.00,,,0.00,WeatherDisplay:10.37,2013-11-16 10:17:00,
2013-11-16 05:22:00,43.2,42.4,30.22,ESE,103,0.0,0.0,97,0.00,,,0.00,WeatherDisplay:10.37,2013-11-16 10:22:00,
2013-11-16 05:27:00,43.0,42.2,30.22,SE,129,1.2,1.2,97,0.00,,,0.00,WeatherDisplay:10.37,2013-11-16 10:27:00,
2013-11-16 05:32:00,43.1,42.6,30.22,SE,129,0.0,0.0,98,0.00,,,0.00,WeatherDisplay:10.37,2013-11-16 10:32:00,
2013-11-16 05:37:00,42.8,42.0,30.22,SE,130,0.0,0.0,97,0.00,,,0.00,WeatherDisplay:10.37,2013-11-16 10:37:00,
2013-11-16 05:42:00,42.9,42.4,30.22,SE,129,0.0,0.0,98,0.00,,,0.00,WeatherDisplay:10.37,2013-11-16 10:42:00,
2013-11-16 05:47:00,43.0,42.5,30.22,SE,129,1.2,1.2,98,0.00,,,0.00,WeatherDisplay:10.37,2013-11-16 10:47:00,
2013-11-16 05:52:00,43.2,42.7,30.22,SE,129,1.2,1.2,98,0.00,,,0.00,WeatherDisplay:10.37,2013-11-16 10:52:00,
2013-11-16 05:57:00,43.3,42.8,30.21,ENE,78,2.3,2.3,98,0.00,,,0.00,WeatherDisplay:10.37,2013-11-16 10:57:00,
2013-11-16 06:02:00,43.6,43.1,30.22,SE,132,1.2,1.2,98,0.00,,,0.00,WeatherDisplay:10.37,2013-11-16 11:02:00,
2013-11-16 06:07:00,43.7,43.2,30.22,East,81,3.5,3.5,98,0.00,,,0.00,WeatherDisplay:10.37,2013-11-16 11:07:00,
2013-11-16 06:12:00,43.6,43.1,30.22,ENE,73,1.2,1.2,98,0.00,,,0.00,WeatherDisplay:10.37,2013-11-16 11:12:00,
2013-11-16 06:18:00,43.3,42.5,30.22,SE,127,2.3,2.3,97,0.00,,,0.00,WeatherDisplay:10.37,2013-11-16 11:18:00,
2013-11-16 06:23:00,43.1,42.3,30.22,SE,127,0.0,0.0,97,0.00,,,0.00,WeatherDisplay:10.37,2013-11-16 11:23:00,
2013-11-16 06:28:00,42.5,41.7,30.23,SE,127,1.2,1.2,97,0.00,,,0.00,WeatherDisplay:10.37,2013-11-16 11:28:00,
2013-11-16 06:33:00,42.5,41.7,30.23,SE,127,1.2,1.2,97,0.00,,,0.00,WeatherDisplay:10.37,2013-11-16 11:33:00,
2013-11-16 06:38:00,42.4,41.6,30.23,SE,140,1.2,1.2,97,0.00,,,0.00,WeatherDisplay:10.37,2013-11-16 11:38:00,
2013-11-16 06:43:00,42.2,41.4,30.23,SE,139,1.2,1.2,97,0.00,,,0.00,WeatherDisplay:10.37,2013-11-16 11:43:00,
2013-11-16 06:48:00,41.9,41.1,30.23,SE,139,1.2,1.2,97,0.00,,,0.00,WeatherDisplay:10.37,2013-11-16 11:48:00,
2013-11-16 06:53:00,41.5,40.7,30.23,ESE,108,1.2,1.2,97,0.00,,,0.00,WeatherDisplay:10.37,2013-11-16 11:53:00,
2013-11-16 06:58:00,41.4,40.6,30.23,East,79,2.0,2.0,97,0.00,,,0.00,WeatherDisplay:10.37,2013-11-16 11:58:00,
2013-11-16 07:03:00,41.8,41.3,30.23,East,83,3.5,3.5,98,0.00,CLR,,0.00,WeatherDisplay:10.37,2013-11-16 12:03:00,
2013-11-16 07:08:00,42.0,41.5,30.23,East,99,3.5,3.5,98,0.00,CLR,,0.00,WeatherDisplay:10.37,2013-11-16 12:08:00,
2013-11-16 07:13:00,42.1,41.6,30.24,SE,129,1.2,0.0,98,0.00,CLR,,0.00,WeatherDisplay:10.37,2013-11-16 12:13:00,
2013-11-16 07:18:00,42.2,41.7,30.24,SE,139,1.0,0.0,98,0.00,CLR,,0.00,WeatherDisplay:10.37,2013-11-16 12:18:00,
2013-11-16 07:23:00,42.3,41.8,30.24,SE,136,1.2,1.2,98,0.00,CLR,,0.00,WeatherDisplay:10.37,2013-11-16 12:23:00,
2013-11-16 07:28:00,42.5,42.0,30.24,SE,131,1.2,1.2,98,0.00,CLR,,0.00,WeatherDisplay:10.37,2013-11-16 12:28:00,
2013-11-16 07:33:00,42.6,42.1,30.24,ENE,75,3.5,3.5,98,0.00,CLR,,0.00,WeatherDisplay:10.37,2013-11-16 12:33:00,
2013-11-16 07:38:00,42.7,42.2,30.24,East,101,4.0,4.0,98,0.00,CLR,,0.00,WeatherDisplay:10.37,2013-11-16 12:38:00,
2013-11-16 07:43:00,42.9,42.4,30.25,SE,125,3.5,3.5,98,0.00,CLR,,0.00,WeatherDisplay:10.37,2013-11-16 12:43:00,
2013-11-16 07:48:00,43.1,42.6,30.25,ENE,75,2.3,2.3,98,0.00,CLR,,0.00,WeatherDisplay:10.37,2013-11-16 12:48:00,
2013-11-16 07:53:00,43.2,42.7,30.25,ENE,77,4.6,4.6,98,0.00,CLR,,0.00,WeatherDisplay:10.37,2013-11-16 12:53:00,
2013-11-16 07:58:00,43.3,42.8,30.25,ESE,109,6.0,6.0,98,0.00,CLR,,0.00,WeatherDisplay:10.37,2013-11-16 12:58:00,
2013-11-16 08:03:00,43.4,42.9,30.25,East,80,5.8,5.8,98,0.00,CLR,,0.00,WeatherDisplay:10.37,2013-11-16 13:03:00,
2013-11-16 08:08:00,43.5,43.0,30.25,East,88,4.0,4.0,98,0.00,CLR,,0.00,WeatherDisplay:10.37,2013-11-16 13:08:00,
2013-11-16 08:13:00,43.6,43.1,30.25,ENE,75,5.0,5.0,98,0.00,CLR,,0.00,WeatherDisplay:10.37,2013-11-16 13:13:00,
2013-11-16 08:18:00,43.6,43.1,30.25,East,79,4.6,4.6,98,0.00,CLR,,0.00,WeatherDisplay:10.37,2013-11-16 13:18:00,
2013-11-16 08:23:00,43.8,43.3,30.25,East,82,5.8,5.8,98,0.00,CLR,,0.00,WeatherDisplay:10.37,2013-11-16 13:23:00,
2013-11-16 08:28:00,43.9,43.4,30.25,ENE,77,4.0,4.0,98,0.00,CLR,,0.00,WeatherDisplay:10.37,2013-11-16 13:28:00,
2013-11-16 08:33:00,44.1,43.6,30.25,ENE,65,5.0,5.0,98,0.00,CLR,,0.00,WeatherDisplay:10.37,2013-11-16 13:33:00,
2013-11-16 08:38:00,44.2,43.7,30.25,East,82,3.5,3.5,98,0.00,CLR,,0.00,WeatherDisplay:10.37,2013-11-16 13:38:00,
2013-11-16 08:43:00,44.4,43.9,30.25,ENE,71,4.6,4.6,98,0.00,CLR,,0.00,WeatherDisplay:10.37,2013-11-16 13:43:00,
2013-11-16 08:48:00,44.7,44.2,30.25,ENE,75,4.0,4.0,98,0.00,CLR,,0.00,WeatherDisplay:10.37,2013-11-16 13:48:00,
2013-11-16 08:53:00,44.8,44.3,30.25,ENE,70,5.0,5.0,98,0.00,CLR,,0.00,WeatherDisplay:10.37,2013-11-16 13:53:00,
2013-11-16 08:58:00,45.0,44.5,30.26,East,81,4.0,4.0,98,0.00,CLR,,0.00,WeatherDisplay:10.37,2013-11-16 13:58:00,
2013-11-16 09:03:00,45.1,44.6,30.26,East,84,3.5,3.5,98,0.00,CLR,,0.00,WeatherDisplay:10.37,2013-11-16 14:03:00,
2013-11-16 09:08:00,45.3,44.8,30.26,ESE,122,3.5,3.5,98,0.00,CLR,,0.00,WeatherDisplay:10.37,2013-11-16 14:08:00,
2013-11-16 09:13:00,45.5,45.0,30.26,NE,46,3.5,3.5,98,0.00,CLR,,0.00,WeatherDisplay:10.37,2013-11-16 14:13:00,
2013-11-16 09:18:00,45.5,45.0,30.26,ENE,77,5.0,5.0,98,0.00,CLR,,0.00,WeatherDisplay:10.37,2013-11-16 14:18:00,
2013-11-16 09:23:00,45.7,45.2,30.26,East,101,4.6,4.6,98,0.00,CLR,,0.00,WeatherDisplay:10.37,2013-11-16 14:23:00,
2013-11-16 09:28:00,45.8,45.3,30.26,East,94,4.6,4.6,98,0.00,CLR,,0.00,WeatherDisplay:10.37,2013-11-16 14:28:00,
2013-11-16 09:33:00,45.7,45.2,30.26,East,85,5.8,5.8,98,0.00,CLR,,0.00,WeatherDisplay:10.37,2013-11-16 14:33:00,
2013-11-16 09:38:00,45.9,45.4,30.26,ENE,75,5.0,5.0,98,0.00,CLR,,0.00,WeatherDisplay:10.37,2013-11-16 14:38:00,
2013-11-16 09:43:00,46.3,45.8,30.26,ENE,74,7.0,7.0,98,0.00,CLR,,0.00,WeatherDisplay:10.37,2013-11-16 14:43:00,
2013-11-16 09:48:00,46.3,45.8,30.26,East,82,5.8,5.8,98,0.00,CLR,,0.00,WeatherDisplay:10.37,2013-11-16 14:48:00,
2013-11-16 09:53:00,46.4,45.9,30.25,SE,137,6.9,6.9,98,0.00,CLR,,0.00,WeatherDisplay:10.37,2013-11-16 14:53:00,
2013-11-16 09:58:00,46.6,46.1,30.25,NE,49,5.8,5.8,98,0.00,CLR,,0.00,WeatherDisplay:10.37,2013-11-16 14:58:00,
2013-11-16 10:03:00,46.9,46.4,30.25,ENE,77,6.0,6.0,98,0.00,CLR,,0.00,WeatherDisplay:10.37,2013-11-16 15:03:00,
2013-11-16 10:08:00,47.4,47.1,30.25,NE,55,3.5,3.5,99,0.00,CLR,,0.00,WeatherDisplay:10.37,2013-11-16 15:08:00,
2013-11-16 10:13:00,48.0,47.7,30.25,ENE,63,4.6,4.6,99,0.00,CLR,,0.00,WeatherDisplay:10.37,2013-11-16 15:13:00,
2013-11-16 10:18:00,48.5,48.2,30.25,ENE,76,6.0,6.0,99,0.00,CLR,,0.00,WeatherDisplay:10.37,2013-11-16 15:18:00,
2013-11-16 10:23:00,48.7,48.2,30.26,ENE,76,9.2,9.2,98,0.00,CLR,,0.00,WeatherDisplay:10.37,2013-11-16 15:23:00,
2013-11-16 10:28:00,49.1,48.6,30.26,East,89,5.8,5.8,98,0.00,CLR,,0.00,WeatherDisplay:10.37,2013-11-16 15:28:00,
2013-11-16 10:33:00,49.5,49.0,30.26,NE,54,5.8,5.8,98,0.00,CLR,,0.00,WeatherDisplay:10.37,2013-11-16 15:33:00,
2013-11-16 10:38:00,50.0,49.5,30.26,East,85,4.6,5.0,98,0.00,CLR,,0.00,WeatherDisplay:10.37,2013-11-16 15:38:00,
2013-11-16 10:44:00,50.6,49.8,30.26,East,84,5.0,5.0,97,0.00,CLR,,0.00,WeatherDisplay:10.37,2013-11-16 15:44:00,
2013-11-16 10:49:00,51.0,49.9,30.26,East,91,4.6,4.6,96,0.00,CLR,,0.00,WeatherDisplay:10.37,2013-11-16 15:49:00,
2013-11-16 10:54:00,51.5,50.4,30.26,East,80,3.0,3.0,96,0.00,CLR,,0.00,WeatherDisplay:10.37,2013-11-16 15:54:00,
2013-11-16 10:59:00,52.2,51.1,30.25,ENE,77,3.5,3.5,96,0.00,CLR,,0.00,WeatherDisplay:10.37,2013-11-16 15:59:00,
2013-11-16 11:04:00,52.5,50.5,30.25,ENE,70,5.0,5.6,93,0.00,CLR,,0.00,WeatherDisplay:10.37,2013-11-16 16:04:00,
2013-11-16 11:09:00,52.6,50.6,30.25,East,97,4.6,4.6,93,0.00,CLR,,0.00,WeatherDisplay:10.37,2013-11-16 16:09:00,
2013-11-16 11:14:00,53.1,50.8,30.25,East,81,8.1,8.1,92,0.00,CLR,,0.00,WeatherDisplay:10.37,2013-11-16 16:14:00,
2013-11-16 11:19:00,53.4,51.1,30.25,East,79,4.6,4.6,92,0.00,CLR,,0.00,WeatherDisplay:10.37,2013-11-16 16:19:00,
2013-11-16 11:24:00,54.1,51.2,30.24,ENE,75,4.6,4.6,90,0.00,CLR,,0.00,WeatherDisplay:10.37,2013-11-16 16:24:00,
2013-11-16 11:29:00,54.7,51.5,30.24,SE,128,5.8,5.8,89,0.00,CLR,,0.00,WeatherDisplay:10.37,2013-11-16 16:29:00,
2013-11-16 11:34:00,55.1,51.6,30.24,ESE,112,6.9,6.9,88,0.00,CLR,,0.00,WeatherDisplay:10.37,2013-11-16 16:34:00,
2013-11-16 11:39:00,55.4,51.6,30.23,NE,44,4.6,4.6,87,0.00,CLR,,0.00,WeatherDisplay:10.37,2013-11-16 16:39:00,
2013-11-16 11:44:00,55.9,52.1,30.23,East,87,3.5,3.5,87,0.00,CLR,,0.00,WeatherDisplay:10.37,2013-11-16 16:44:00,
2013-11-16 11:49:00,56.1,52.3,30.23,ENE,71,2.3,2.3,87,0.00,CLR,,0.00,WeatherDisplay:10.37,2013-11-16 16:49:00,
2013-11-16 11:54:00,56.6,52.8,30.23,ENE,73,1.2,1.2,87,0.00,CLR,,0.00,WeatherDisplay:10.37,2013-11-16 16:54:00,
2013-11-16 11:59:00,57.3,52.8,30.23,NNE,27,2.3,2.3,85,0.00,CLR,,0.00,WeatherDisplay:10.37,2013-11-16 16:59:00,
2013-11-16 12:04:00,57.6,52.8,30.23,NNW,331,1.2,1.2,84,0.00,CLR,,0.00,WeatherDisplay:10.37,2013-11-16 17:04:00,
2013-11-16 12:09:00,57.9,53.1,30.23,NNW,327,0.0,0.0,84,0.00,CLR,,0.00,WeatherDisplay:10.37,2013-11-16 17:09:00,
2013-11-16 12:14:00,58.4,52.9,30.23,East,94,2.3,2.3,82,0.00,CLR,,0.00,WeatherDisplay:10.37,2013-11-16 17:14:00,
2013-11-16 12:19:00,58.4,52.9,30.22,ENE,74,2.3,2.3,82,0.00,CLR,,0.00,WeatherDisplay:10.37,2013-11-16 17:19:00,
2013-11-16 12:24:00,58.9,53.1,30.22,ENE,60,4.0,4.0,81,0.00,CLR,,0.00,WeatherDisplay:10.37,2013-11-16 17:24:00,
2013-11-16 12:29:00,59.1,53.3,30.22,ENE,73,3.5,3.5,81,0.00,CLR,,0.00,WeatherDisplay:10.37,2013-11-16 17:29:00,
2013-11-16 12:34:00,59.2,52.7,30.21,East,89,2.3,2.3,79,0.00,CLR,,0.00,WeatherDisplay:10.37,2013-11-16 17:34:00,
2013-11-16 12:39:00,59.4,52.9,30.21,ESE,109,3.5,3.5,79,0.00,CLR,,0.00,WeatherDisplay:10.37,2013-11-16 17:39:00,
2013-11-16 12:44:00,59.6,53.1,30.21,East,87,0.0,0.0,79,0.00,CLR,,0.00,WeatherDisplay:10.37,2013-11-16 17:44:00,
2013-11-16 12:49:00,60.4,54.2,30.20,East,88,1.2,1.2,80,0.00,CLR,,0.00,WeatherDisplay:10.37,2013-11-16 17:49:00,
2013-11-16 12:54:00,60.8,53.2,30.20,ENE,77,2.3,2.3,76,0.00,CLR,,0.00,WeatherDisplay:10.37,2013-11-16 17:54:00,
2013-11-16 12:59:00,60.9,53.6,30.20,East,80,1.2,0.0,77,0.00,CLR,,0.00,WeatherDisplay:10.37,2013-11-16 17:59:00,
2013-11-16 13:04:00,61.3,53.7,30.20,East,81,1.2,1.2,76,0.00,CLR,,0.00,WeatherDisplay:10.37,2013-11-16 18:04:00,
2013-11-16 13:09:00,61.7,54.4,30.20,North,5,0.0,0.0,77,0.00,CLR,,0.00,WeatherDisplay:10.37,2013-11-16 18:09:00,
2013-11-16 13:14:00,62.3,54.3,30.19,North,6,0.0,0.0,75,0.00,CLR,,0.00,WeatherDisplay:10.37,2013-11-16 18:14:00,
2013-11-16 13:19:00,62.6,53.8,30.19,NW,306,2.3,2.3,73,0.00,CLR,,0.00,WeatherDisplay:10.37,2013-11-16 18:19:00,
2013-11-16 13:24:00,62.4,53.6,30.19,NW,306,0.0,0.0,73,0.00,CLR,,0.00,WeatherDisplay:10.37,2013-11-16 18:24:00,
2013-11-16 13:29:00,62.7,53.5,30.18,WSW,248,2.3,0.0,72,0.00,CLR,,0.00,WeatherDisplay:10.37,2013-11-16 18:29:00,
2013-11-16 13:34:00,63.0,54.6,30.18,WNW,295,0.0,0.0,74,0.00,CLR,,0.00,WeatherDisplay:10.37,2013-11-16 18:34:00,
2013-11-16 13:39:00,63.3,53.7,30.18,WNW,291,3.5,3.5,71,0.00,CLR,,0.00,WeatherDisplay:10.37,2013-11-16 18:39:00,
2013-11-16 13:44:00,63.5,53.5,30.17,NW,319,4.6,4.6,70,0.00,CLR,,0.00,WeatherDisplay:10.37,2013-11-16 18:44:00,
2013-11-16 13:49:00,64.5,54.1,30.17,SW,229,1.2,1.2,69,0.00,CLR,,0.00,WeatherDisplay:10.37,2013-11-16 18:49:00,
2013-11-16 13:54:00,65.6,54.3,30.17,WSW,248,4.6,4.6,67,0.00,CLR,,0.00,WeatherDisplay:10.37,2013-11-16 18:54:00,
2013-11-16 14:00:00,65.8,53.7,30.16,WSW,241,4.6,4.6,65,0.00,CLR,,0.00,WeatherDisplay:10.37,2013-11-16 19:00:00,
2013-11-16 14:05:00,65.8,53.7,30.16,WSW,246,2.0,2.0,65,0.00,CLR,,0.00,WeatherDisplay:10.37,2013-11-16 19:05:00,
2013-11-16 14:10:00,66.4,54.3,30.16,NW,305,3.5,3.5,65,0.00,CLR,,0.00,WeatherDisplay:10.37,2013-11-16 19:10:00,
2013-11-16 14:15:00,66.1,52.3,30.16,NW,321,5.8,5.8,61,0.00,CLR,,0.00,WeatherDisplay:10.37,2013-11-16 19:15:00,
2013-11-16 14:20:00,66.0,52.6,30.16,NW,307,9.2,9.2,62,0.00,CLR,,0.00,WeatherDisplay:10.37,2013-11-16 19:20:00,
2013-11-16 14:25:00,66.2,53.2,30.16,West,272,3.0,9.0,63,0.00,CLR,,0.00,WeatherDisplay:10.37,2013-11-16 19:25:00,
2013-11-16 14:30:00,66.7,52.8,30.16,WNW,298,5.8,5.8,61,0.00,CLR,,0.00,WeatherDisplay:10.37,2013-11-16 19:30:00,
2013-11-16 14:35:00,66.8,53.4,30.15,West,262,2.0,8.0,62,0.00,CLR,,0.00,WeatherDisplay:10.37,2013-11-16 19:35:00,
2013-11-16 14:40:00,66.6,52.7,30.15,West,276,3.0,10.0,61,0.00,CLR,,0.00,WeatherDisplay:10.37,2013-11-16 19:40:00,
2013-11-16 14:45:00,66.5,53.1,30.15,WNW,283,4.6,4.6,62,0.00,CLR,,0.00,WeatherDisplay:10.37,2013-11-16 19:45:00,
2013-11-16 14:50:00,66.8,52.5,30.15,West,260,3.5,3.5,60,0.00,CLR,,0.00,WeatherDisplay:10.37,2013-11-16 19:50:00,
2013-11-16 14:55:00,67.2,53.3,30.15,West,259,3.5,3.5,61,0.00,CLR,,0.00,WeatherDisplay:10.37,2013-11-16 19:55:00,
2013-11-16 15:00:00,67.7,53.3,30.15,WNW,290,5.0,5.0,60,0.00,CLR,,0.00,WeatherDisplay:10.37,2013-11-16 20:00:00,
2013-11-16 15:05:00,67.6,52.8,30.16,WNW,298,3.5,3.5,59,0.00,CLR,,0.00,WeatherDisplay:10.37,2013-11-16 20:05:00,
2013-11-16 15:10:00,67.9,52.6,30.15,WSW,252,3.5,3.5,58,0.00,CLR,,0.00,WeatherDisplay:10.37,2013-11-16 20:10:00,
2013-11-16 15:15:00,67.9,52.6,30.15,WSW,237,3.5,3.5,58,0.00,CLR,,0.00,WeatherDisplay:10.37,2013-11-16 20:15:00,
2013-11-16 15:20:00,68.2,52.9,30.15,WSW,255,1.0,4.0,58,0.00,CLR,,0.00,WeatherDisplay:10.37,2013-11-16 20:20:00,
2013-11-16 15:25:00,67.6,51.8,30.15,NW,311,3.5,3.5,57,0.00,CLR,,0.00,WeatherDisplay:10.37,2013-11-16 20:25:00,
2013-11-16 15:30:00,67.6,52.8,30.14,WNW,283,1.2,0.0,59,0.00,CLR,,0.00,WeatherDisplay:10.37,2013-11-16 20:30:00,
2013-11-16 15:35:00,68.6,52.8,30.14,West,279,0.0,3.0,57,0.00,CLR,,0.00,WeatherDisplay:10.37,2013-11-16 20:35:00,
2013-11-16 15:40:00,68.5,52.7,30.14,WSW,245,3.5,3.5,57,0.00,CLR,,0.00,WeatherDisplay:10.37,2013-11-16 20:40:00,
2013-11-16 15:45:00,68.1,52.8,30.14,WNW,288,3.5,3.5,58,0.00,CLR,,0.00,WeatherDisplay:10.37,2013-11-16 20:45:00,
2013-11-16 15:50:00,67.7,52.4,30.14,WNW,288,1.0,4.0,58,0.00,CLR,,0.00,WeatherDisplay:10.37,2013-11-16 20:50:00,
2013-11-16 15:55:00,67.6,51.8,30.14,NW,312,1.2,1.2,57,0.00,CLR,,0.00,WeatherDisplay:10.37,2013-11-16 20:55:00,
2013-11-16 16:00:00,67.9,53.5,30.14,NW,310,0.0,1.0,60,0.00,CLR,,0.00,WeatherDisplay:10.37,2013-11-16 21:00:00,
2013-11-16 16:05:00,68.5,52.6,30.14,NW,306,0.0,1.0,57,0.00,CLR,,0.00,WeatherDisplay:10.37,2013-11-16 21:05:00,
2013-11-16 16:10:00,69.4,53.5,30.14,NW,306,0.0,0.0,57,0.00,CLR,,0.00,WeatherDisplay:10.37,2013-11-16 21:10:00,
2013-11-16 16:15:00,69.2,53.8,30.13,NW,306,0.0,1.0,58,0.00,CLR,,0.00,WeatherDisplay:10.37,2013-11-16 21:15:00,
2013-11-16 16:20:00,69.0,53.6,30.13,NW,306,0.0,0.1,58,0.00,CLR,,0.00,WeatherDisplay:10.37,2013-11-16 21:20:00,
2013-11-16 16:25:00,68.4,53.5,30.13,NW,306,0.0,0.0,59,0.00,CLR,,0.00,WeatherDisplay:10.37,2013-11-16 21:25:00,
2013-11-16 16:30:00,68.3,54.3,30.13,NW,306,0.0,0.0,61,0.00,CLR,,0.00,WeatherDisplay:10.37,2013-11-16 21:30:00,
2013-11-16 16:35:00,68.2,53.3,30.13,NW,306,1.2,0.0,59,0.00,CLR,,0.00,WeatherDisplay:10.37,2013-11-16 21:35:00,
2013-11-16 16:40:00,67.1,52.8,30.13,NW,306,0.0,1.0,60,0.00,CLR,,0.00,WeatherDisplay:10.37,2013-11-16 21:40:00,
2013-11-16 16:45:00,66.2,52.3,30.13,WNW,300,0.0,1.0,61,0.00,CLR,,0.00,WeatherDisplay:10.37,2013-11-16 21:45:00,
2013-11-16 16:50:00,65.6,52.2,30.13,WSW,238,1.2,0.0,62,0.00,CLR,,0.00,WeatherDisplay:10.37,2013-11-16 21:50:00,
2013-11-16 16:55:00,63.8,51.8,30.13,East,93,6.0,10.0,65,0.00,CLR,,0.00,WeatherDisplay:10.37,2013-11-16 21:55:00,
2013-11-16 17:00:00,62.2,51.9,30.13,East,81,6.0,9.0,69,0.00,CLR,,0.00,WeatherDisplay:10.37,2013-11-16 22:00:00,
2013-11-16 17:05:00,61.0,51.5,30.14,ENE,70,5.0,5.0,71,0.00,CLR,,0.00,WeatherDisplay:10.37,2013-11-16 22:05:00,
2013-11-16 17:10:00,60.2,51.5,30.14,East,90,2.0,4.0,73,0.00,CLR,,0.00,WeatherDisplay:10.37,2013-11-16 22:10:00,
2013-11-16 17:15:00,59.3,51.4,30.14,East,80,3.5,3.5,75,0.00,CLR,,0.00,WeatherDisplay:10.37,2013-11-16 22:15:00,
2013-11-16 17:20:00,58.4,50.9,30.14,SE,136,4.6,4.6,76,0.00,CLR,,0.00,WeatherDisplay:10.37,2013-11-16 22:20:00,
2013-11-16 17:25:00,57.7,50.5,30.14,ESE,111,2.0,3.0,77,0.00,CLR,,0.00,WeatherDisplay:10.37,2013-11-16 22:25:00,
2013-11-16 17:30:00,57.0,50.5,30.14,ESE,119,1.2,1.2,79,0.00,CLR,,0.00,WeatherDisplay:10.37,2013-11-16 22:30:00,
2013-11-16 17:35:00,56.4,50.3,30.14,East,101,3.5,3.5,80,0.00,CLR,,0.00,WeatherDisplay:10.37,2013-11-16 22:35:00,
2013-11-16 17:40:00,56.1,50.3,30.14,ESE,115,1.0,2.0,81,0.00,CLR,,0.00,WeatherDisplay:10.37,2013-11-16 22:40:00,
2013-11-16 17:45:00,55.7,50.0,30.14,ESE,119,1.0,3.0,81,0.00,CLR,,0.00,WeatherDisplay:10.37,2013-11-16 22:45:00,
2013-11-16 17:50:00,55.3,49.9,30.14,East,97,1.0,3.0,82,0.00,,,0.00,WeatherDisplay:10.37,2013-11-16 22:50:00,
2013-11-16 17:55:00,55.0,49.6,30.14,ESE,102,1.0,2.0,82,0.00,,,0.00,WeatherDisplay:10.37,2013-11-16 22:55:00,
2013-11-16 18:00:00,54.6,49.5,30.14,SE,131,3.5,3.5,83,0.00,,,0.00,WeatherDisplay:10.37,2013-11-16 23:00:00,
2013-11-16 18:05:00,54.3,49.6,30.14,East,99,2.0,5.0,84,0.00,,,0.00,WeatherDisplay:10.37,2013-11-16 23:05:00,
2013-11-16 18:10:00,54.0,49.6,30.14,SE,129,3.5,3.5,85,0.00,,,0.00,WeatherDisplay:10.37,2013-11-16 23:10:00,
2013-11-16 18:15:00,53.8,49.4,30.14,SE,134,3.5,3.5,85,0.00,,,0.00,WeatherDisplay:10.37,2013-11-16 23:15:00,
2013-11-16 18:20:00,53.5,49.4,30.14,ESE,115,3.5,3.5,86,0.00,,,0.00,WeatherDisplay:10.37,2013-11-16 23:20:00,
2013-11-16 18:25:00,53.2,49.1,30.14,SE,139,2.3,2.6,86,0.00,,,0.00,WeatherDisplay:10.37,2013-11-16 23:25:00,
2013-11-16 18:30:00,52.9,49.1,30.15,ESE,115,3.5,3.5,87,0.00,,,0.00,WeatherDisplay:10.37,2013-11-16 23:30:00,
2013-11-16 18:35:00,52.7,48.9,30.14,SE,125,1.0,3.0,87,0.00,,,0.00,WeatherDisplay:10.37,2013-11-16 23:35:00,
2013-11-16 18:40:00,52.5,48.7,30.14,SE,140,2.3,2.3,87,0.00,,,0.00,WeatherDisplay:10.37,2013-11-16 23:40:00,
2013-11-16 18:45:00,52.3,48.5,30.15,SE,135,2.3,2.3,87,0.00,,,0.00,WeatherDisplay:10.37,2013-11-16 23:45:00,
2013-11-16 18:50:00,52.1,48.7,30.15,SE,128,0.0,4.0,88,0.00,,,0.00,WeatherDisplay:10.37,2013-11-16 23:50:00,
2013-11-16 18:55:00,51.8,48.4,30.15,East,81,1.2,1.2,88,0.00,,,0.00,WeatherDisplay:10.37,2013-11-16 23:55:00,
2013-11-16 19:00:00,51.5,48.1,30.15,East,100,0.0,2.0,88,0.00,,,0.00,WeatherDisplay:10.37,2013-11-17 00:00:00,
2013-11-16 19:05:00,51.3,48.2,30.16,ESE,123,1.0,3.0,89,0.00,,,0.00,WeatherDisplay:10.37,2013-11-17 00:05:00,
2013-11-16 19:10:00,51.1,48.0,30.16,SE,133,3.5,3.5,89,0.00,,,0.00,WeatherDisplay:10.37,2013-11-17 00:10:00,
2013-11-16 19:15:00,51.1,48.0,30.16,ESE,115,2.0,4.0,89,0.00,,,0.00,WeatherDisplay:10.37,2013-11-17 00:15:00,
2013-11-16 19:20:00,50.8,47.7,30.15,ESE,115,3.0,3.0,89,0.00,,,0.00,WeatherDisplay:10.37,2013-11-17 00:20:00,
2013-11-16 19:25:00,50.7,47.9,30.16,ESE,104,3.5,3.5,90,0.00,,,0.00,WeatherDisplay:10.37,2013-11-17 00:25:00,
2013-11-16 19:30:00,50.4,47.6,30.15,ESE,107,1.0,3.0,90,0.00,,,0.00,WeatherDisplay:10.37,2013-11-17 00:30:00,
2013-11-16 19:35:00,50.1,47.3,30.15,ENE,78,2.0,2.3,90,0.00,,,0.00,WeatherDisplay:10.37,2013-11-17 00:35:00,
2013-11-16 19:40:00,50.1,47.3,30.15,ESE,108,2.3,2.3,90,0.00,,,0.00,WeatherDisplay:10.37,2013-11-17 00:40:00,
2013-11-16 19:45:00,50.1,47.6,30.15,ESE,106,2.0,4.0,91,0.00,,,0.00,WeatherDisplay:10.37,2013-11-17 00:45:00,
2013-11-16 19:50:00,50.0,47.2,30.15,ESE,112,3.5,3.5,90,0.00,,,0.00,WeatherDisplay:10.37,2013-11-17 00:50:00,
2013-11-16 19:55:00,50.0,47.5,30.15,SE,132,2.3,2.3,91,0.00,,,0.00,WeatherDisplay:10.37,2013-11-17 00:55:00,
2013-11-16 20:00:00,49.9,47.4,30.15,SE,127,1.0,3.0,91,0.00,,,0.00,WeatherDisplay:10.37,2013-11-17 01:00:00,
2013-11-16 20:05:00,49.9,47.4,30.15,East,79,2.3,2.3,91,0.00,,,0.00,WeatherDisplay:10.37,2013-11-17 01:05:00,
2013-11-16 20:10:00,49.7,47.2,30.16,ENE,69,2.3,2.3,91,0.00,,,0.00,WeatherDisplay:10.37,2013-11-17 01:10:00,
2013-11-16 20:15:00,49.6,47.1,30.16,East,89,0.0,2.0,91,0.00,,,0.00,WeatherDisplay:10.37,2013-11-17 01:15:00,
2013-11-16 20:20:00,49.5,47.0,30.16,ESE,113,2.0,2.0,91,0.00,,,0.00,WeatherDisplay:10.37,2013-11-17 01:20:00,
2013-11-16 20:25:00,49.5,47.0,30.15,ESE,105,1.0,3.0,91,0.00,,,0.00,WeatherDisplay:10.37,2013-11-17 01:25:00,
2013-11-16 20:30:00,49.5,47.0,30.16,East,91,1.0,3.0,91,0.00,,,0.00,WeatherDisplay:10.37,2013-11-17 01:30:00,
2013-11-16 20:35:00,49.2,46.7,30.15,NE,53,1.2,0.0,91,0.00,,,0.00,WeatherDisplay:10.37,2013-11-17 01:35:00,
2013-11-16 20:40:00,48.9,46.4,30.15,ENE,68,2.3,2.3,91,0.00,,,0.00,WeatherDisplay:10.37,2013-11-17 01:40:00,
2013-11-16 20:45:00,48.8,46.6,30.15,ESE,107,0.0,2.0,92,0.00,,,0.00,WeatherDisplay:10.37,2013-11-17 01:45:00,
2013-11-16 20:50:00,48.4,45.9,30.15,SE,127,0.0,0.0,91,0.00,,,0.00,WeatherDisplay:10.37,2013-11-17 01:50:00,
2013-11-16 20:55:00,48.2,46.0,30.16,SE,127,0.0,1.0,92,0.00,,,0.00,WeatherDisplay:10.37,2013-11-17 01:55:00,
2013-11-16 21:00:00,48.4,46.5,30.16,East,94,2.3,2.3,93,0.00,,,0.00,WeatherDisplay:10.37,2013-11-17 02:00:00,
2013-11-16 21:05:00,48.5,46.6,30.15,East,89,2.3,2.3,93,0.00,,,0.00,WeatherDisplay:10.37,2013-11-17 02:05:00,
2013-11-16 21:10:00,48.7,46.8,30.15,SSE,155,2.0,2.0,93,0.00,,,0.00,WeatherDisplay:10.37,2013-11-17 02:10:00,
2013-11-16 21:15:00,48.8,46.9,30.15,ESE,114,1.0,3.0,93,0.00,,,0.00,WeatherDisplay:10.37,2013-11-17 02:15:00,
2013-11-16 21:20:00,48.8,46.6,30.16,SE,127,1.2,0.0,92,0.00,,,0.00,WeatherDisplay:10.37,2013-11-17 02:20:00,
2013-11-16 21:25:00,48.7,46.5,30.16,East,86,0.0,0.0,92,0.00,,,0.00,WeatherDisplay:10.37,2013-11-17 02:25:00,
2013-11-16 21:30:00,48.3,46.1,30.16,East,82,1.2,1.2,92,0.00,,,0.00,WeatherDisplay:10.37,2013-11-17 02:30:00,
2013-11-16 21:35:00,48.0,45.8,30.16,East,85,0.0,1.0,92,0.00,,,0.00,WeatherDisplay:10.37,2013-11-17 02:35:00,
2013-11-16 21:40:00,47.8,45.9,30.16,East,82,1.2,1.2,93,0.00,,,0.00,WeatherDisplay:10.37,2013-11-17 02:40:00,
2013-11-16 21:45:00,47.7,45.8,30.15,East,82,0.0,0.0,93,0.00,,,0.00,WeatherDisplay:10.37,2013-11-17 02:45:00,
2013-11-16 21:50:00,47.4,45.2,30.15,East,82,0.0,1.0,92,0.00,,,0.00,WeatherDisplay:10.37,2013-11-17 02:50:00,
2013-11-16 21:55:00,47.3,45.4,30.15,East,82,0.0,1.0,93,0.00,,,0.00,WeatherDisplay:10.37,2013-11-17 02:55:00,
2013-11-16 22:00:00,47.2,45.2,30.15,East,82,1.0,2.0,93,0.00,,,0.00,WeatherDisplay:10.37,2013-11-17 03:00:00,
2013-11-16 22:05:00,47.0,45.1,30.15,East,82,0.0,1.0,93,0.00,,,0.00,WeatherDisplay:10.37,2013-11-17 03:05:00,
2013-11-16 22:10:00,46.7,44.8,30.15,East,81,1.2,0.0,93,0.00,,,0.00,WeatherDisplay:10.37,2013-11-17 03:10:00,
2013-11-16 22:15:00,46.5,44.6,30.15,East,81,0.0,0.0,93,0.00,,,0.00,WeatherDisplay:10.37,2013-11-17 03:15:00,
2013-11-16 22:20:00,46.3,44.4,30.16,East,81,0.0,0.0,93,0.00,,,0.00,WeatherDisplay:10.37,2013-11-17 03:20:00,
2013-11-16 22:25:00,46.0,44.1,30.16,East,81,0.0,0.0,93,0.00,,,0.00,WeatherDisplay:10.37,2013-11-17 03:25:00,
2013-11-16 22:30:00,45.8,43.9,30.16,East,81,1.2,1.2,93,0.00,,,0.00,WeatherDisplay:10.37,2013-11-17 03:30:00,
2013-11-16 22:35:00,45.6,44.0,30.16,East,81,0.0,1.0,94,0.00,,,0.00,WeatherDisplay:10.37,2013-11-17 03:35:00,
2013-11-16 22:40:00,45.8,44.2,30.16,East,81,0.0,0.0,94,0.00,,,0.00,WeatherDisplay:10.37,2013-11-17 03:40:00,
2013-11-16 22:45:00,46.2,44.9,30.16,East,81,0.0,1.0,95,0.00,,,0.00,WeatherDisplay:10.37,2013-11-17 03:45:00,
2013-11-16 22:50:00,46.5,45.1,30.16,ESE,103,1.2,1.2,95,0.00,,,0.00,WeatherDisplay:10.37,2013-11-17 03:50:00,
2013-11-16 22:55:00,46.7,45.3,30.16,SE,137,1.2,1.3,95,0.00,,,0.00,WeatherDisplay:10.37,2013-11-17 03:55:00,
2013-11-16 23:00:00,46.8,45.5,30.15,SE,138,0.0,1.0,95,0.00,,,0.00,WeatherDisplay:10.37,2013-11-17 04:00:00,
2013-11-16 23:05:00,46.1,44.2,30.15,SE,136,0.0,1.0,93,0.00,,,0.00,WeatherDisplay:10.37,2013-11-17 04:05:00,
2013-11-16 23:10:00,46.1,44.7,30.16,SE,146,0.0,0.0,95,0.00,,,0.00,WeatherDisplay:10.37,2013-11-17 04:10:00,
2013-11-16 23:15:00,46.1,44.5,30.16,SE,146,0.0,1.0,94,0.00,,,0.00,WeatherDisplay:10.37,2013-11-17 04:15:00,
2013-11-16 23:20:00,46.0,44.6,30.15,SE,146,0.0,0.0,95,0.00,,,0.00,WeatherDisplay:10.37,2013-11-17 04:20:00,
2013-11-16 23:25:00,45.9,44.3,30.16,SE,146,1.2,0.0,94,0.00,,,0.00,WeatherDisplay:10.37,2013-11-17 04:25:00,
2013-11-16 23:30:00,45.4,43.5,30.16,SE,146,1.2,1.2,93,0.00,,,0.00,WeatherDisplay:10.37,2013-11-17 04:30:00,
2013-11-16 23:35:00,45.1,43.5,30.15,SE,146,0.0,0.0,94,0.00,,,0.00,WeatherDisplay:10.37,2013-11-17 04:35:00,
2013-11-16 23:40:00,45.0,43.4,30.16,SE,146,0.0,0.0,94,0.00,,,0.00,WeatherDisplay:10.37,2013-11-17 04:40:00,
2013-11-16 23:45:00,44.8,43.2,30.16,SE,146,0.0,0.0,94,0.00,,,0.00,WeatherDisplay:10.37,2013-11-17 04:45:00,
2013-11-16 23:50:00,44.6,43.3,30.16,SE,146,0.0,0.0,95,0.00,,,0.00,WeatherDisplay:10.37,2013-11-17 04:50:00,
2013-11-16 23:55:00,44.4,43.1,30.15,SE,146,0.0,0.0,95,0.00,,,0.00,WeatherDisplay:10.37,2013-11-17 04:55:00,